sensor_id;sensor_type;location;lat;lon;timestamp;P1;durP1;ratioP1;P2;durP2;ratioP2
19255;SDS011;9762;52.490;13.410;2022-12-18T00:01:35;33.50;;;21.33;;
19255;SDS011;9762;52.490;13.410;2022-12-18T00:04:05;35.40;;;20.37;;
19255;SDS011;9762;52.490;13.410;2022-12-18T00:06:33;35.30;;;19.87;;
19255;SDS011;9762;52.490;13.410;2022-12-18T00:08:59;32.90;;;20.67;;
19255;SDS011;9762;52.490;13.410;2022-12-18T00:11:28;35.57;;;20.80;;
19255;SDS011;9762;52.490;13.410;2022-12-18T00:13:56;33.17;;;20.17;;
19255;SDS011;9762;52.490;13.410;2022-12-18T00:16:24;32.63;;;19.83;;
19255;SDS011;9762;52.490;13.410;2022-12-18T00:18:51;33.93;;;20.83;;
19255;SDS011;9762;52.490;13.410;2022-12-18T00:21:18;34.10;;;21.13;;
19255;SDS011;9762;52.490;13.410;2022-12-18T00:23:45;31.27;;;20.17;;
19255;SDS011;9762;52.490;13.410;2022-12-18T00:26:19;32.83;;;20.73;;
19255;SDS011;9762;52.490;13.410;2022-12-18T00:28:47;33.73;;;20.73;;
19255;SDS011;9762;52.490;13.410;2022-12-18T00:31:14;35.97;;;22.47;;
19255;SDS011;9762;52.490;13.410;2022-12-18T00:33:42;34.43;;;21.80;;
19255;SDS011;9762;52.490;13.410;2022-12-18T00:36:12;35.43;;;21.37;;
19255;SDS011;9762;52.490;13.410;2022-12-18T00:38:38;37.17;;;21.53;;
19255;SDS011;9762;52.490;13.410;2022-12-18T00:41:04;32.50;;;20.17;;
19255;SDS011;9762;52.490;13.410;2022-12-18T00:43:34;30.70;;;20.13;;
19255;SDS011;9762;52.490;13.410;2022-12-18T00:46:00;30.63;;;20.50;;
19255;SDS011;9762;52.490;13.410;2022-12-18T00:48:26;32.57;;;19.70;;
19255;SDS011;9762;52.490;13.410;2022-12-18T00:50:51;34.63;;;21.87;;
19255;SDS011;9762;52.490;13.410;2022-12-18T00:53:17;36.17;;;22.03;;
19255;SDS011;9762;52.490;13.410;2022-12-18T00:55:43;32.27;;;20.60;;
19255;SDS011;9762;52.490;13.410;2022-12-18T00:58:10;31.80;;;20.50;;
19255;SDS011;9762;52.490;13.410;2022-12-18T01:00:37;33.80;;;20.97;;
19255;SDS011;9762;52.490;13.410;2022-12-18T01:03:03;32.53;;;20.43;;
19255;SDS011;9762;52.490;13.410;2022-12-18T01:05:29;35.03;;;21.33;;
19255;SDS011;9762;52.490;13.410;2022-12-18T01:07:55;34.63;;;21.13;;
19255;SDS011;9762;52.490;13.410;2022-12-18T01:10:21;34.70;;;22.03;;
19255;SDS011;9762;52.490;13.410;2022-12-18T01:12:47;30.17;;;19.30;;
19255;SDS011;9762;52.490;13.410;2022-12-18T01:15:13;31.73;;;20.03;;
19255;SDS011;9762;52.490;13.410;2022-12-18T01:17:40;28.63;;;19.00;;
19255;SDS011;9762;52.490;13.410;2022-12-18T01:20:05;32.40;;;19.80;;
19255;SDS011;9762;52.490;13.410;2022-12-18T01:22:35;31.70;;;19.83;;
19255;SDS011;9762;52.490;13.410;2022-12-18T01:25:01;35.37;;;21.70;;
19255;SDS011;9762;52.490;13.410;2022-12-18T01:27:26;31.10;;;20.43;;
19255;SDS011;9762;52.490;13.410;2022-12-18T01:29:52;33.27;;;21.20;;
19255;SDS011;9762;52.490;13.410;2022-12-18T01:32:17;30.97;;;20.40;;
19255;SDS011;9762;52.490;13.410;2022-12-18T01:34:43;35.90;;;22.20;;
19255;SDS011;9762;52.490;13.410;2022-12-18T01:37:09;31.10;;;20.00;;
19255;SDS011;9762;52.490;13.410;2022-12-18T01:39:35;38.43;;;22.47;;
19255;SDS011;9762;52.490;13.410;2022-12-18T01:42:05;36.80;;;22.57;;
19255;SDS011;9762;52.490;13.410;2022-12-18T01:44:56;39.50;;;23.80;;
19255;SDS011;9762;52.490;13.410;2022-12-18T01:47:41;38.40;;;22.73;;
19255;SDS011;9762;52.490;13.410;2022-12-18T01:50:23;42.13;;;24.43;;
19255;SDS011;9762;52.490;13.410;2022-12-18T01:52:53;41.93;;;24.67;;
19255;SDS011;9762;52.490;13.410;2022-12-18T01:55:23;41.20;;;24.93;;
19255;SDS011;9762;52.490;13.410;2022-12-18T01:57:52;42.73;;;26.87;;
19255;SDS011;9762;52.490;13.410;2022-12-18T02:00:21;45.27;;;27.23;;
19255;SDS011;9762;52.490;13.410;2022-12-18T02:02:48;47.77;;;27.20;;
19255;SDS011;9762;52.490;13.410;2022-12-18T02:05:15;47.90;;;27.10;;
19255;SDS011;9762;52.490;13.410;2022-12-18T02:13:38;43.70;;;26.00;;
19255;SDS011;9762;52.490;13.410;2022-12-18T02:18:46;45.67;;;26.83;;
19255;SDS011;9762;52.490;13.410;2022-12-18T02:24:00;48.00;;;28.23;;
19255;SDS011;9762;52.490;13.410;2022-12-18T02:27:05;53.00;;;28.33;;
19255;SDS011;9762;52.490;13.410;2022-12-18T02:29:32;53.03;;;29.30;;
19255;SDS011;9762;52.490;13.410;2022-12-18T02:32:02;52.43;;;29.30;;
19255;SDS011;9762;52.490;13.410;2022-12-18T02:34:32;53.90;;;29.07;;
19255;SDS011;9762;52.490;13.410;2022-12-18T02:37:02;50.83;;;28.97;;
19255;SDS011;9762;52.490;13.410;2022-12-18T02:39:30;50.87;;;27.60;;
19255;SDS011;9762;52.490;13.410;2022-12-18T02:41:58;56.93;;;31.40;;
19255;SDS011;9762;52.490;13.410;2022-12-18T02:44:27;52.73;;;29.40;;
19255;SDS011;9762;52.490;13.410;2022-12-18T02:46:53;60.17;;;33.20;;
19255;SDS011;9762;52.490;13.410;2022-12-18T02:52:01;63.07;;;34.30;;
19255;SDS011;9762;52.490;13.410;2022-12-18T02:57:31;62.60;;;33.83;;
19255;SDS011;9762;52.490;13.410;2022-12-18T03:00:11;69.80;;;35.47;;
19255;SDS011;9762;52.490;13.410;2022-12-18T03:05:22;63.97;;;34.37;;
19255;SDS011;9762;52.490;13.410;2022-12-18T03:07:57;67.17;;;34.77;;
19255;SDS011;9762;52.490;13.410;2022-12-18T03:10:29;64.43;;;34.60;;
19255;SDS011;9762;52.490;13.410;2022-12-18T03:13:02;65.40;;;34.43;;
19255;SDS011;9762;52.490;13.410;2022-12-18T03:15:44;67.73;;;34.63;;
19255;SDS011;9762;52.490;13.410;2022-12-18T03:18:14;69.63;;;33.70;;
19255;SDS011;9762;52.490;13.410;2022-12-18T03:20:44;63.80;;;34.97;;
19255;SDS011;9762;52.490;13.410;2022-12-18T03:23:16;64.57;;;34.97;;
19255;SDS011;9762;52.490;13.410;2022-12-18T03:25:46;64.73;;;34.43;;
19255;SDS011;9762;52.490;13.410;2022-12-18T03:28:18;59.40;;;32.23;;
19255;SDS011;9762;52.490;13.410;2022-12-18T03:30:46;62.77;;;33.27;;
19255;SDS011;9762;52.490;13.410;2022-12-18T03:33:17;62.87;;;32.10;;
19255;SDS011;9762;52.490;13.410;2022-12-18T03:35:49;61.63;;;33.43;;
19255;SDS011;9762;52.490;13.410;2022-12-18T03:38:15;61.17;;;32.43;;
19255;SDS011;9762;52.490;13.410;2022-12-18T03:40:43;62.87;;;32.17;;
19255;SDS011;9762;52.490;13.410;2022-12-18T03:49:23;63.17;;;33.03;;
19255;SDS011;9762;52.490;13.410;2022-12-18T03:54:30;60.50;;;33.03;;
19255;SDS011;9762;52.490;13.410;2022-12-18T03:57:00;57.40;;;32.37;;
19255;SDS011;9762;52.490;13.410;2022-12-18T03:59:33;58.23;;;32.23;;
19255;SDS011;9762;52.490;13.410;2022-12-18T04:02:01;58.33;;;31.80;;
19255;SDS011;9762;52.490;13.410;2022-12-18T04:04:27;52.10;;;28.93;;
19255;SDS011;9762;52.490;13.410;2022-12-18T04:06:55;51.50;;;28.80;;
19255;SDS011;9762;52.490;13.410;2022-12-18T04:09:22;47.47;;;26.67;;
19255;SDS011;9762;52.490;13.410;2022-12-18T04:11:48;49.77;;;27.70;;
19255;SDS011;9762;52.490;13.410;2022-12-18T04:14:14;47.27;;;26.33;;
19255;SDS011;9762;52.490;13.410;2022-12-18T04:16:40;48.20;;;27.07;;
19255;SDS011;9762;52.490;13.410;2022-12-18T04:19:05;44.47;;;26.97;;
19255;SDS011;9762;52.490;13.410;2022-12-18T04:21:31;42.87;;;25.40;;
19255;SDS011;9762;52.490;13.410;2022-12-18T04:23:56;44.33;;;25.20;;
19255;SDS011;9762;52.490;13.410;2022-12-18T04:26:22;46.83;;;25.57;;
19255;SDS011;9762;52.490;13.410;2022-12-18T04:28:48;42.43;;;24.37;;
19255;SDS011;9762;52.490;13.410;2022-12-18T04:31:13;38.30;;;22.70;;
19255;SDS011;9762;52.490;13.410;2022-12-18T04:33:39;41.60;;;23.67;;
19255;SDS011;9762;52.490;13.410;2022-12-18T04:36:05;40.33;;;24.33;;
19255;SDS011;9762;52.490;13.410;2022-12-18T04:38:30;39.37;;;22.63;;
19255;SDS011;9762;52.490;13.410;2022-12-18T04:40:56;40.70;;;24.00;;
19255;SDS011;9762;52.490;13.410;2022-12-18T04:43:22;42.50;;;24.00;;
19255;SDS011;9762;52.490;13.410;2022-12-18T04:45:47;38.83;;;23.80;;
19255;SDS011;9762;52.490;13.410;2022-12-18T04:48:13;42.97;;;25.47;;
19255;SDS011;9762;52.490;13.410;2022-12-18T04:50:38;40.80;;;23.10;;
19255;SDS011;9762;52.490;13.410;2022-12-18T04:53:04;37.83;;;22.03;;
19255;SDS011;9762;52.490;13.410;2022-12-18T04:55:30;43.87;;;24.27;;
19255;SDS011;9762;52.490;13.410;2022-12-18T04:57:55;36.07;;;21.80;;
19255;SDS011;9762;52.490;13.410;2022-12-18T05:00:21;41.60;;;23.30;;
19255;SDS011;9762;52.490;13.410;2022-12-18T05:02:47;36.27;;;21.53;;
19255;SDS011;9762;52.490;13.410;2022-12-18T05:05:12;38.77;;;21.83;;
19255;SDS011;9762;52.490;13.410;2022-12-18T05:07:38;38.37;;;23.03;;
19255;SDS011;9762;52.490;13.410;2022-12-18T05:10:07;38.87;;;22.40;;
19255;SDS011;9762;52.490;13.410;2022-12-18T05:12:33;40.73;;;21.97;;
19255;SDS011;9762;52.490;13.410;2022-12-18T05:15:19;36.67;;;21.27;;
19255;SDS011;9762;52.490;13.410;2022-12-18T05:17:44;38.70;;;23.03;;
19255;SDS011;9762;52.490;13.410;2022-12-18T05:20:10;37.20;;;21.33;;
19255;SDS011;9762;52.490;13.410;2022-12-18T05:22:35;38.57;;;22.10;;
19255;SDS011;9762;52.490;13.410;2022-12-18T05:25:01;36.17;;;20.83;;
19255;SDS011;9762;52.490;13.410;2022-12-18T05:27:27;37.50;;;21.60;;
19255;SDS011;9762;52.490;13.410;2022-12-18T05:29:52;37.10;;;22.27;;
19255;SDS011;9762;52.490;13.410;2022-12-18T05:32:18;39.93;;;21.70;;
19255;SDS011;9762;52.490;13.410;2022-12-18T05:34:43;34.87;;;19.43;;
19255;SDS011;9762;52.490;13.410;2022-12-18T05:37:09;40.43;;;22.40;;
19255;SDS011;9762;52.490;13.410;2022-12-18T05:39:34;38.10;;;22.87;;
19255;SDS011;9762;52.490;13.410;2022-12-18T05:42:00;40.73;;;21.57;;
19255;SDS011;9762;52.490;13.410;2022-12-18T05:44:26;43.33;;;23.23;;
19255;SDS011;9762;52.490;13.410;2022-12-18T05:46:51;47.53;;;23.90;;
19255;SDS011;9762;52.490;13.410;2022-12-18T05:49:17;41.10;;;23.33;;
19255;SDS011;9762;52.490;13.410;2022-12-18T05:51:42;39.67;;;22.87;;
19255;SDS011;9762;52.490;13.410;2022-12-18T05:54:08;41.20;;;23.50;;
19255;SDS011;9762;52.490;13.410;2022-12-18T05:56:33;42.67;;;24.63;;
19255;SDS011;9762;52.490;13.410;2022-12-18T05:58:59;43.47;;;24.80;;
19255;SDS011;9762;52.490;13.410;2022-12-18T06:01:25;45.60;;;25.23;;
19255;SDS011;9762;52.490;13.410;2022-12-18T06:03:51;42.30;;;24.43;;
19255;SDS011;9762;52.490;13.410;2022-12-18T06:06:24;43.63;;;25.40;;
19255;SDS011;9762;52.490;13.410;2022-12-18T06:08:51;46.43;;;25.33;;
19255;SDS011;9762;52.490;13.410;2022-12-18T06:11:19;43.23;;;24.93;;
19255;SDS011;9762;52.490;13.410;2022-12-18T06:13:51;49.30;;;25.60;;
19255;SDS011;9762;52.490;13.410;2022-12-18T06:16:18;45.63;;;26.03;;
19255;SDS011;9762;52.490;13.410;2022-12-18T06:18:44;43.50;;;23.93;;
19255;SDS011;9762;52.490;13.410;2022-12-18T06:21:09;48.67;;;26.00;;
19255;SDS011;9762;52.490;13.410;2022-12-18T06:23:35;46.20;;;26.60;;
19255;SDS011;9762;52.490;13.410;2022-12-18T06:26:04;43.53;;;24.87;;
19255;SDS011;9762;52.490;13.410;2022-12-18T06:28:31;46.50;;;26.50;;
19255;SDS011;9762;52.490;13.410;2022-12-18T06:30:57;46.70;;;26.17;;
19255;SDS011;9762;52.490;13.410;2022-12-18T06:33:25;49.93;;;25.37;;
19255;SDS011;9762;52.490;13.410;2022-12-18T06:35:51;42.63;;;24.77;;
19255;SDS011;9762;52.490;13.410;2022-12-18T06:38:17;41.60;;;24.57;;
19255;SDS011;9762;52.490;13.410;2022-12-18T06:40:43;41.87;;;25.20;;
19255;SDS011;9762;52.490;13.410;2022-12-18T06:43:08;40.80;;;25.23;;
19255;SDS011;9762;52.490;13.410;2022-12-18T06:45:34;44.10;;;25.00;;
19255;SDS011;9762;52.490;13.410;2022-12-18T06:47:59;42.00;;;25.30;;
19255;SDS011;9762;52.490;13.410;2022-12-18T06:50:25;51.30;;;29.17;;
19255;SDS011;9762;52.490;13.410;2022-12-18T06:52:51;45.70;;;26.70;;
19255;SDS011;9762;52.490;13.410;2022-12-18T06:55:17;39.43;;;24.30;;
19255;SDS011;9762;52.490;13.410;2022-12-18T06:57:42;40.67;;;23.67;;
19255;SDS011;9762;52.490;13.410;2022-12-18T07:00:08;40.17;;;24.27;;
19255;SDS011;9762;52.490;13.410;2022-12-18T07:02:34;38.20;;;23.57;;
19255;SDS011;9762;52.490;13.410;2022-12-18T07:05:00;49.30;;;25.83;;
19255;SDS011;9762;52.490;13.410;2022-12-18T07:07:26;39.50;;;24.27;;
19255;SDS011;9762;52.490;13.410;2022-12-18T07:09:52;43.27;;;25.13;;
19255;SDS011;9762;52.490;13.410;2022-12-18T07:12:17;42.47;;;24.53;;
19255;SDS011;9762;52.490;13.410;2022-12-18T07:14:43;39.03;;;23.43;;
19255;SDS011;9762;52.490;13.410;2022-12-18T07:17:09;40.87;;;23.23;;
19255;SDS011;9762;52.490;13.410;2022-12-18T07:19:35;39.47;;;24.90;;
19255;SDS011;9762;52.490;13.410;2022-12-18T07:22:00;42.27;;;24.53;;
19255;SDS011;9762;52.490;13.410;2022-12-18T07:24:26;42.90;;;25.03;;
19255;SDS011;9762;52.490;13.410;2022-12-18T07:26:52;41.40;;;25.20;;
19255;SDS011;9762;52.490;13.410;2022-12-18T07:29:18;46.33;;;26.53;;
19255;SDS011;9762;52.490;13.410;2022-12-18T07:31:43;48.73;;;28.03;;
19255;SDS011;9762;52.490;13.410;2022-12-18T07:34:12;56.17;;;32.47;;
19255;SDS011;9762;52.490;13.410;2022-12-18T07:36:38;54.90;;;30.23;;
19255;SDS011;9762;52.490;13.410;2022-12-18T07:39:03;50.57;;;29.70;;
19255;SDS011;9762;52.490;13.410;2022-12-18T07:41:29;52.53;;;31.67;;
19255;SDS011;9762;52.490;13.410;2022-12-18T07:43:55;64.87;;;38.23;;
19255;SDS011;9762;52.490;13.410;2022-12-18T07:46:20;64.90;;;36.20;;
19255;SDS011;9762;52.490;13.410;2022-12-18T07:48:46;54.23;;;33.17;;
19255;SDS011;9762;52.490;13.410;2022-12-18T07:51:12;53.50;;;28.67;;
19255;SDS011;9762;52.490;13.410;2022-12-18T07:53:38;48.60;;;28.00;;
19255;SDS011;9762;52.490;13.410;2022-12-18T07:56:05;48.03;;;26.53;;
19255;SDS011;9762;52.490;13.410;2022-12-18T07:58:33;45.90;;;25.60;;
19255;SDS011;9762;52.490;13.410;2022-12-18T08:01:03;51.97;;;28.47;;
19255;SDS011;9762;52.490;13.410;2022-12-18T08:03:34;48.53;;;27.40;;
19255;SDS011;9762;52.490;13.410;2022-12-18T08:06:00;47.43;;;26.20;;
19255;SDS011;9762;52.490;13.410;2022-12-18T08:08:27;48.07;;;26.90;;
19255;SDS011;9762;52.490;13.410;2022-12-18T08:10:53;43.90;;;25.87;;
19255;SDS011;9762;52.490;13.410;2022-12-18T08:13:19;43.83;;;25.77;;
19255;SDS011;9762;52.490;13.410;2022-12-18T08:15:44;44.60;;;25.10;;
19255;SDS011;9762;52.490;13.410;2022-12-18T08:18:10;45.37;;;26.57;;
19255;SDS011;9762;52.490;13.410;2022-12-18T08:20:35;46.83;;;25.87;;
19255;SDS011;9762;52.490;13.410;2022-12-18T08:23:01;46.03;;;26.40;;
19255;SDS011;9762;52.490;13.410;2022-12-18T08:25:26;39.50;;;23.63;;
19255;SDS011;9762;52.490;13.410;2022-12-18T08:27:52;40.03;;;24.20;;
19255;SDS011;9762;52.490;13.410;2022-12-18T08:30:18;42.67;;;24.83;;
19255;SDS011;9762;52.490;13.410;2022-12-18T08:32:44;43.67;;;23.93;;
19255;SDS011;9762;52.490;13.410;2022-12-18T08:35:09;41.27;;;24.20;;
19255;SDS011;9762;52.490;13.410;2022-12-18T08:37:36;39.80;;;23.50;;
19255;SDS011;9762;52.490;13.410;2022-12-18T08:40:02;42.47;;;25.77;;
19255;SDS011;9762;52.490;13.410;2022-12-18T08:42:28;38.50;;;23.67;;
19255;SDS011;9762;52.490;13.410;2022-12-18T08:45:12;35.23;;;22.20;;
19255;SDS011;9762;52.490;13.410;2022-12-18T08:47:38;41.13;;;24.77;;
19255;SDS011;9762;52.490;13.410;2022-12-18T08:50:04;42.90;;;26.07;;
19255;SDS011;9762;52.490;13.410;2022-12-18T08:52:31;44.03;;;26.13;;
19255;SDS011;9762;52.490;13.410;2022-12-18T08:54:57;37.30;;;23.43;;
19255;SDS011;9762;52.490;13.410;2022-12-18T08:57:23;40.33;;;23.73;;
19255;SDS011;9762;52.490;13.410;2022-12-18T08:59:48;40.10;;;23.37;;
19255;SDS011;9762;52.490;13.410;2022-12-18T09:02:14;34.60;;;22.40;;
19255;SDS011;9762;52.490;13.410;2022-12-18T09:04:40;34.47;;;21.03;;
19255;SDS011;9762;52.490;13.410;2022-12-18T09:07:06;33.57;;;21.23;;
19255;SDS011;9762;52.490;13.410;2022-12-18T09:09:32;30.27;;;20.23;;
19255;SDS011;9762;52.490;13.410;2022-12-18T09:11:57;31.87;;;21.20;;
19255;SDS011;9762;52.490;13.410;2022-12-18T09:14:23;30.73;;;20.03;;
19255;SDS011;9762;52.490;13.410;2022-12-18T09:16:49;31.93;;;20.50;;
19255;SDS011;9762;52.490;13.410;2022-12-18T09:19:14;32.23;;;20.43;;
19255;SDS011;9762;52.490;13.410;2022-12-18T09:21:40;32.00;;;20.37;;
19255;SDS011;9762;52.490;13.410;2022-12-18T09:24:05;32.90;;;21.10;;
19255;SDS011;9762;52.490;13.410;2022-12-18T09:26:31;37.07;;;20.93;;
19255;SDS011;9762;52.490;13.410;2022-12-18T09:28:57;36.70;;;22.27;;
19255;SDS011;9762;52.490;13.410;2022-12-18T09:31:23;33.30;;;20.67;;
19255;SDS011;9762;52.490;13.410;2022-12-18T09:33:49;36.13;;;21.83;;
19255;SDS011;9762;52.490;13.410;2022-12-18T09:36:16;37.10;;;21.97;;
19255;SDS011;9762;52.490;13.410;2022-12-18T09:38:43;39.53;;;23.07;;
19255;SDS011;9762;52.490;13.410;2022-12-18T09:41:28;37.23;;;23.07;;
19255;SDS011;9762;52.490;13.410;2022-12-18T09:44:13;39.57;;;23.97;;
19255;SDS011;9762;52.490;13.410;2022-12-18T09:46:46;41.03;;;23.47;;
19255;SDS011;9762;52.490;13.410;2022-12-18T09:49:18;41.80;;;22.93;;
19255;SDS011;9762;52.490;13.410;2022-12-18T09:54:24;47.47;;;27.30;;
19255;SDS011;9762;52.490;13.410;2022-12-18T09:56:55;38.50;;;22.93;;
19255;SDS011;9762;52.490;13.410;2022-12-18T09:59:22;40.13;;;22.73;;
19255;SDS011;9762;52.490;13.410;2022-12-18T10:01:51;38.83;;;21.93;;
19255;SDS011;9762;52.490;13.410;2022-12-18T10:04:17;35.63;;;21.97;;
19255;SDS011;9762;52.490;13.410;2022-12-18T10:09:31;37.70;;;22.27;;
19255;SDS011;9762;52.490;13.410;2022-12-18T10:12:13;74.70;;;45.60;;
19255;SDS011;9762;52.490;13.410;2022-12-18T10:14:48;43.30;;;26.13;;
19255;SDS011;9762;52.490;13.410;2022-12-18T10:25:21;38.03;;;22.03;;
19255;SDS011;9762;52.490;13.410;2022-12-18T10:27:58;66.60;;;39.93;;
19255;SDS011;9762;52.490;13.410;2022-12-18T10:30:32;44.93;;;25.57;;
19255;SDS011;9762;52.490;13.410;2022-12-18T10:33:04;39.10;;;22.23;;
19255;SDS011;9762;52.490;13.410;2022-12-18T10:35:30;42.43;;;25.00;;
19255;SDS011;9762;52.490;13.410;2022-12-18T10:37:59;43.27;;;25.30;;
19255;SDS011;9762;52.490;13.410;2022-12-18T10:40:26;45.63;;;24.57;;
19255;SDS011;9762;52.490;13.410;2022-12-18T10:43:13;44.80;;;24.37;;
19255;SDS011;9762;52.490;13.410;2022-12-18T10:45:39;50.80;;;27.30;;
19255;SDS011;9762;52.490;13.410;2022-12-18T10:48:17;48.27;;;26.63;;
19255;SDS011;9762;52.490;13.410;2022-12-18T10:50:46;45.03;;;25.20;;
19255;SDS011;9762;52.490;13.410;2022-12-18T10:53:17;41.77;;;25.20;;
19255;SDS011;9762;52.490;13.410;2022-12-18T10:55:46;42.10;;;24.77;;
19255;SDS011;9762;52.490;13.410;2022-12-18T10:58:19;44.03;;;23.87;;
19255;SDS011;9762;52.490;13.410;2022-12-18T11:00:48;45.20;;;25.50;;
19255;SDS011;9762;52.490;13.410;2022-12-18T11:03:36;46.17;;;25.77;;
19255;SDS011;9762;52.490;13.410;2022-12-18T11:06:14;44.03;;;24.73;;
19255;SDS011;9762;52.490;13.410;2022-12-18T11:09:02;47.03;;;25.87;;
19255;SDS011;9762;52.490;13.410;2022-12-18T11:11:42;46.50;;;24.53;;
19255;SDS011;9762;52.490;13.410;2022-12-18T11:14:24;39.93;;;22.47;;
19255;SDS011;9762;52.490;13.410;2022-12-18T11:16:54;34.97;;;21.27;;
19255;SDS011;9762;52.490;13.410;2022-12-18T11:21:51;35.47;;;21.23;;
19255;SDS011;9762;52.490;13.410;2022-12-18T11:24:19;34.07;;;20.93;;
19255;SDS011;9762;52.490;13.410;2022-12-18T11:26:47;35.37;;;21.10;;
19255;SDS011;9762;52.490;13.410;2022-12-18T11:29:17;32.67;;;21.07;;
19255;SDS011;9762;52.490;13.410;2022-12-18T11:31:47;35.13;;;20.90;;
19255;SDS011;9762;52.490;13.410;2022-12-18T11:36:56;48.27;;;29.13;;
19255;SDS011;9762;52.490;13.410;2022-12-18T11:42:17;36.47;;;22.10;;
19255;SDS011;9762;52.490;13.410;2022-12-18T11:50:21;34.27;;;21.57;;
19255;SDS011;9762;52.490;13.410;2022-12-18T11:52:50;36.57;;;21.23;;
19255;SDS011;9762;52.490;13.410;2022-12-18T11:55:19;37.73;;;20.27;;
19255;SDS011;9762;52.490;13.410;2022-12-18T12:00:39;33.30;;;20.40;;
19255;SDS011;9762;52.490;13.410;2022-12-18T12:16:34;38.17;;;22.30;;
19255;SDS011;9762;52.490;13.410;2022-12-18T12:19:29;35.80;;;22.13;;
19255;SDS011;9762;52.490;13.410;2022-12-18T12:22:06;34.70;;;21.63;;
19255;SDS011;9762;52.490;13.410;2022-12-18T12:24:57;37.70;;;22.87;;
19255;SDS011;9762;52.490;13.410;2022-12-18T12:27:35;38.07;;;22.10;;
19255;SDS011;9762;52.490;13.410;2022-12-18T12:38:56;32.93;;;21.07;;
19255;SDS011;9762;52.490;13.410;2022-12-18T12:41:25;39.37;;;21.27;;
19255;SDS011;9762;52.490;13.410;2022-12-18T12:44:19;34.13;;;20.43;;
19255;SDS011;9762;52.490;13.410;2022-12-18T12:46:55;34.17;;;19.97;;
19255;SDS011;9762;52.490;13.410;2022-12-18T12:49:25;32.53;;;20.13;;
19255;SDS011;9762;52.490;13.410;2022-12-18T12:51:58;40.43;;;24.47;;
19255;SDS011;9762;52.490;13.410;2022-12-18T12:54:35;29.10;;;18.60;;
19255;SDS011;9762;52.490;13.410;2022-12-18T13:02:29;27.37;;;17.80;;
19255;SDS011;9762;52.490;13.410;2022-12-18T13:28:16;30.33;;;19.33;;
19255;SDS011;9762;52.490;13.410;2022-12-18T13:31:02;29.80;;;19.63;;
19255;SDS011;9762;52.490;13.410;2022-12-18T13:36:01;25.10;;;19.60;;
19255;SDS011;9762;52.490;13.410;2022-12-18T13:38:35;29.57;;;19.83;;
19255;SDS011;9762;52.490;13.410;2022-12-18T13:41:21;38.97;;;25.63;;
19255;SDS011;9762;52.490;13.410;2022-12-18T13:43:49;36.67;;;23.23;;
19255;SDS011;9762;52.490;13.410;2022-12-18T13:46:21;29.67;;;20.70;;
19255;SDS011;9762;52.490;13.410;2022-12-18T13:51:39;28.53;;;20.17;;
19255;SDS011;9762;52.490;13.410;2022-12-18T13:56:59;30.33;;;19.67;;
19255;SDS011;9762;52.490;13.410;2022-12-18T13:59:38;29.67;;;20.97;;
19255;SDS011;9762;52.490;13.410;2022-12-18T14:02:12;31.70;;;20.53;;
19255;SDS011;9762;52.490;13.410;2022-12-18T14:04:40;26.20;;;20.37;;
19255;SDS011;9762;52.490;13.410;2022-12-18T14:07:07;31.67;;;21.37;;
19255;SDS011;9762;52.490;13.410;2022-12-18T14:12:29;31.03;;;24.40;;
19255;SDS011;9762;52.490;13.410;2022-12-18T14:17:50;42.40;;;31.30;;
19255;SDS011;9762;52.490;13.410;2022-12-18T14:20:19;51.57;;;34.00;;
19255;SDS011;9762;52.490;13.410;2022-12-18T14:22:45;45.83;;;30.40;;
19255;SDS011;9762;52.490;13.410;2022-12-18T14:27:46;53.83;;;35.83;;
19255;SDS011;9762;52.490;13.410;2022-12-18T14:30:32;50.27;;;34.10;;
19255;SDS011;9762;52.490;13.410;2022-12-18T14:35:33;37.03;;;26.13;;
19255;SDS011;9762;52.490;13.410;2022-12-18T14:40:42;30.77;;;21.27;;
19255;SDS011;9762;52.490;13.410;2022-12-18T14:43:11;29.47;;;22.57;;
19255;SDS011;9762;52.490;13.410;2022-12-18T14:45:38;26.53;;;20.63;;
19255;SDS011;9762;52.490;13.410;2022-12-18T14:48:13;31.70;;;23.23;;
19255;SDS011;9762;52.490;13.410;2022-12-18T14:50:39;35.47;;;22.37;;
19255;SDS011;9762;52.490;13.410;2022-12-18T14:53:04;25.10;;;18.27;;
19255;SDS011;9762;52.490;13.410;2022-12-18T14:55:30;27.23;;;19.83;;
19255;SDS011;9762;52.490;13.410;2022-12-18T14:57:56;23.90;;;17.73;;
19255;SDS011;9762;52.490;13.410;2022-12-18T15:00:23;46.47;;;30.77;;
19255;SDS011;9762;52.490;13.410;2022-12-18T15:02:52;25.27;;;17.70;;
19255;SDS011;9762;52.490;13.410;2022-12-18T15:05:27;21.97;;;16.60;;
19255;SDS011;9762;52.490;13.410;2022-12-18T15:07:55;24.63;;;17.33;;
19255;SDS011;9762;52.490;13.410;2022-12-18T15:10:23;22.53;;;16.70;;
19255;SDS011;9762;52.490;13.410;2022-12-18T15:12:50;22.20;;;17.20;;
19255;SDS011;9762;52.490;13.410;2022-12-18T15:23:49;22.70;;;16.90;;
19255;SDS011;9762;52.490;13.410;2022-12-18T15:26:10;20.40;;;16.83;;
19255;SDS011;9762;52.490;13.410;2022-12-18T15:36:28;24.30;;;17.13;;
19255;SDS011;9762;52.490;13.410;2022-12-18T15:38:55;25.03;;;18.77;;
19255;SDS011;9762;52.490;13.410;2022-12-18T15:41:22;21.93;;;16.37;;
19255;SDS011;9762;52.490;13.410;2022-12-18T15:43:49;26.83;;;19.30;;
19255;SDS011;9762;52.490;13.410;2022-12-18T15:46:17;21.77;;;16.13;;
19255;SDS011;9762;52.490;13.410;2022-12-18T15:48:45;22.17;;;15.20;;
19255;SDS011;9762;52.490;13.410;2022-12-18T15:51:26;23.13;;;17.27;;
19255;SDS011;9762;52.490;13.410;2022-12-18T15:53:56;22.00;;;16.43;;
19255;SDS011;9762;52.490;13.410;2022-12-18T15:56:24;42.33;;;27.90;;
19255;SDS011;9762;52.490;13.410;2022-12-18T15:59:12;24.13;;;18.50;;
19255;SDS011;9762;52.490;13.410;2022-12-18T16:01:46;30.50;;;21.27;;
19255;SDS011;9762;52.490;13.410;2022-12-18T16:04:14;25.17;;;18.20;;
19255;SDS011;9762;52.490;13.410;2022-12-18T16:06:41;24.93;;;18.90;;
19255;SDS011;9762;52.490;13.410;2022-12-18T16:09:07;27.47;;;18.73;;
19255;SDS011;9762;52.490;13.410;2022-12-18T16:11:33;25.20;;;18.00;;
19255;SDS011;9762;52.490;13.410;2022-12-18T16:16:36;22.73;;;17.77;;
19255;SDS011;9762;52.490;13.410;2022-12-18T16:19:02;27.07;;;18.03;;
19255;SDS011;9762;52.490;13.410;2022-12-18T16:21:27;24.67;;;18.13;;
19255;SDS011;9762;52.490;13.410;2022-12-18T16:23:53;23.67;;;16.40;;
19255;SDS011;9762;52.490;13.410;2022-12-18T16:26:18;23.30;;;17.07;;
19255;SDS011;9762;52.490;13.410;2022-12-18T16:28:44;22.60;;;16.77;;
19255;SDS011;9762;52.490;13.410;2022-12-18T16:31:10;22.80;;;16.80;;
19255;SDS011;9762;52.490;13.410;2022-12-18T16:33:35;25.17;;;17.57;;
19255;SDS011;9762;52.490;13.410;2022-12-18T16:36:01;23.57;;;16.53;;
19255;SDS011;9762;52.490;13.410;2022-12-18T16:38:26;21.67;;;16.80;;
19255;SDS011;9762;52.490;13.410;2022-12-18T16:40:52;26.67;;;17.20;;
19255;SDS011;9762;52.490;13.410;2022-12-18T16:43:36;26.40;;;18.03;;
19255;SDS011;9762;52.490;13.410;2022-12-18T16:46:02;21.87;;;17.23;;
19255;SDS011;9762;52.490;13.410;2022-12-18T16:48:27;51.13;;;34.10;;
19255;SDS011;9762;52.490;13.410;2022-12-18T16:51:00;25.97;;;20.13;;
19255;SDS011;9762;52.490;13.410;2022-12-18T16:53:27;26.07;;;19.17;;
19255;SDS011;9762;52.490;13.410;2022-12-18T16:55:54;25.07;;;19.33;;
19255;SDS011;9762;52.490;13.410;2022-12-18T16:58:20;25.80;;;18.73;;
19255;SDS011;9762;52.490;13.410;2022-12-18T17:00:45;28.40;;;19.57;;